Time;durP1;ratioP1;P1;durP2;ratioP2;P2;SDS_P1;SDS_P2;PMS_P1;PMS_P2;Temp;Humidity;BMP_temperature;BMP_pressure;BME280_temperature;BME280_humidity;BME280_pressure;Samples;Min_cycle;Max_cycle;Signal;HPM_P1;HPM_P2
2023/05/28 00:00:26;;;;;;;5.70;2.90;;;;;;;8.32;65.50;101477.58;104562;1271;99180;-79
2023/05/28 00:03:32;;;;;;;5.70;2.70;;;;;;;8.25;65.38;101476.15;104786;1270;100550;-79
2023/05/28 00:06:18;;;;;;;5.60;2.80;;;;;;;8.19;65.25;101473.46;104807;1270;98501;-77
2023/05/28 00:09:04;;;;;;;7.50;3.40;;;;;;;8.15;65.26;101474.23;104637;1273;97985;-79
2023/05/28 00:11:49;;;;;;;3.90;2.80;;;;;;;8.10;65.14;101474.73;104674;1270;102633;-80
2023/05/28 00:14:35;;;;;;;4.90;2.50;;;;;;;8.05;64.97;101472.05;104652;1269;100553;-77
2023/05/28 00:17:21;;;;;;;6.80;2.60;;;;;;;8.02;65.11;101469.56;104717;1270;97999;-78
2023/05/28 00:20:07;;;;;;;4.60;3.40;;;;;;;7.98;65.41;101466.89;104665;1266;98864;-76
2023/05/28 00:22:53;;;;;;;5.20;2.90;;;;;;;7.94;65.57;101470.25;104801;1270;97971;-80
2023/05/28 00:25:38;;;;;;;10.40;4.30;;;;;;;7.91;65.87;101469.52;104966;1270;101366;-79
2023/05/28 00:28:24;;;;;;;7.30;3.10;;;;;;;7.90;65.93;101472.86;104843;1267;100979;-78
2023/05/28 00:31:09;;;;;;;9.70;3.30;;;;;;;7.85;66.09;101468.70;104898;1269;97979;-80
2023/05/28 00:33:56;;;;;;;6.60;3.20;;;;;;;7.79;66.05;101470.33;104807;1270;98010;-76
2023/05/28 00:36:41;;;;;;;7.00;3.80;;;;;;;7.73;66.06;101470.35;104622;1267;98008;-78
2023/05/28 00:39:27;;;;;;;5.10;3.60;;;;;;;7.68;66.04;101466.27;104571;1267;101347;-79
2023/05/28 00:42:13;;;;;;;6.50;3.80;;;;;;;7.61;66.31;101463.52;104603;1268;100319;-77
2023/05/28 00:44:58;;;;;;;8.60;4.20;;;;;;;7.56;66.48;101462.92;104488;1273;99083;-78
2023/05/28 00:47:44;;;;;;;10.00;4.50;;;;;;;7.53;66.40;101465.91;104841;1270;97982;-80
2023/05/28 00:50:30;;;;;;;9.30;3.10;;;;;;;7.50;66.63;101467.77;104776;1271;98526;-78
2023/05/28 00:53:17;;;;;;;5.60;3.90;;;;;;;7.48;66.84;101465.36;104576;1270;102680;-78
2023/05/28 00:56:03;;;;;;;9.10;3.20;;;;;;;7.45;67.20;101462.09;104576;1273;100522;-78
2023/05/28 00:58:49;;;;;;;8.90;3.30;;;;;;;7.40;67.10;101460.60;104609;1267;98460;-78
2023/05/28 01:01:36;;;;;;;4.30;3.50;;;;;;;7.34;67.36;101459.09;104602;1267;97974;-80
2023/05/28 01:04:22;;;;;;;7.80;3.60;;;;;;;7.29;67.35;101457.88;104495;1270;97908;-78
2023/05/28 01:07:07;;;;;;;10.10;3.10;;;;;;;7.26;67.56;101455.90;104548;1270;101364;-79
2023/05/28 01:09:53;;;;;;;6.90;3.10;;;;;;;7.23;67.60;101451.55;104669;1279;99176;-77
2023/05/28 01:12:41;;;;;;;6.30;3.40;;;;;;;7.20;67.60;101447.92;104536;1269;99697;-80
2023/05/28 01:15:27;;;;;;;6.50;3.10;;;;;;;7.16;67.70;101450.83;104511;1266;99211;-78
2023/05/28 01:18:13;;;;;;;5.30;3.30;;;;;;;7.13;67.73;101455.04;104737;1266;99340;-78
2023/05/28 01:21:01;;;;;;;4.90;3.40;;;;;;;7.09;67.99;101449.61;104524;1267;102119;-78
2023/05/28 01:23:48;;;;;;;6.40;3.60;;;;;;;7.07;68.04;101448.72;104574;1267;99318;-77
2023/05/28 01:26:34;;;;;;;6.30;3.70;;;;;;;7.05;67.97;101446.70;104467;1272;98222;-78
2023/05/28 01:29:19;;;;;;;4.10;3.20;;;;;;;7.03;68.34;101437.70;104563;1267;97996;-78
2023/05/28 01:32:05;;;;;;;6.10;3.10;;;;;;;7.01;68.48;101435.91;104588;1270;99199;-78
2023/05/28 01:34:51;;;;;;;6.30;4.00;;;;;;;6.96;68.39;101433.71;104582;1267;102510;-79
2023/05/28 01:37:41;;;;;;;7.70;3.50;;;;;;;6.91;68.46;101432.92;104577;1268;99113;-78
2023/05/28 01:40:27;;;;;;;6.50;4.40;;;;;;;6.88;68.32;101432.13;104627;1268;97982;-80
2023/05/28 01:43:13;;;;;;;6.00;3.80;;;;;;;6.87;68.31;101432.44;104631;1266;97983;-79
2023/05/28 01:46:00;;;;;;;6.00;3.30;;;;;;;6.84;68.55;101431.33;104490;1267;98517;-79
2023/05/28 01:48:46;;;;;;;6.40;3.90;;;;;;;6.82;68.91;101432.56;104595;1267;102627;-82
2023/05/28 01:51:32;;;;;;;8.40;4.00;;;;;;;6.80;68.78;101430.23;104801;1267;100254;-78
2023/05/28 01:54:20;;;;;;;10.60;3.70;;;;;;;6.79;69.07;101429.67;104557;1267;97993;-77
2023/05/28 01:57:06;;;;;;;7.10;3.90;;;;;;;6.77;69.27;101426.11;104673;1270;97978;-79
2023/05/28 01:59:51;;;;;;;6.30;4.30;;;;;;;6.75;69.31;101428.95;104875;1269;98555;-81
2023/05/28 02:02:37;;;;;;;6.80;2.90;;;;;;;6.70;68.96;101425.67;104959;1269;102321;-79
2023/05/28 02:05:23;;;;;;;7.60;3.00;;;;;;;6.64;69.02;101423.08;104526;1267;99082;-80
2023/05/28 02:08:08;;;;;;;5.10;3.00;;;;;;;6.59;69.47;101425.09;104633;1270;98950;-79
2023/05/28 02:10:55;;;;;;;4.10;3.10;;;;;;;6.57;69.29;101422.10;104573;1267;97987;-78
2023/05/28 02:13:40;;;;;;;5.30;3.50;;;;;;;6.55;69.39;101415.60;104617;1273;98582;-79
2023/05/28 02:16:27;;;;;;;10.00;4.20;;;;;;;6.52;69.36;101412.86;104514;1270;101368;-78
2023/05/28 02:19:14;;;;;;;9.00;3.80;;;;;;;6.47;69.23;101407.48;104607;1267;99087;-77
2023/05/28 02:22:00;;;;;;;5.80;3.70;;;;;;;6.44;69.54;101404.69;104483;1273;98951;-80
2023/05/28 02:24:46;;;;;;;11.10;4.10;;;;;;;6.44;69.45;101404.54;104452;1273;98058;-79
2023/05/28 02:27:32;;;;;;;8.60;3.70;;;;;;;6.43;69.60;101410.87;104564;1267;98442;-77
2023/05/28 02:30:17;;;;;;;6.60;4.20;;;;;;;6.41;69.72;101408.75;104496;1267;101382;-77
2023/05/28 02:33:03;;;;;;;8.70;4.40;;;;;;;6.38;70.04;101405.95;104507;1270;99193;-78
2023/05/28 02:35:48;;;;;;;6.40;4.20;;;;;;;6.37;70.07;101405.55;104569;1265;98089;-79
2023/05/28 02:38:34;;;;;;;6.40;3.90;;;;;;;6.35;70.36;101410.34;104564;1267;97983;-78
2023/05/28 02:41:21;;;;;;;4.70;3.30;;;;;;;6.31;70.19;101410.02;104489;1268;98499;-78
2023/05/28 02:44:08;;;;;;;5.30;3.30;;;;;;;6.28;70.31;101411.92;104596;1270;101352;-76
2023/05/28 02:46:53;;;;;;;5.20;3.20;;;;;;;6.26;70.37;101416.33;104556;1267;99211;-76
2023/05/28 02:49:39;;;;;;;7.40;4.60;;;;;;;6.25;70.28;101414.31;104827;1270;98100;-80
2023/05/28 02:52:25;;;;;;;4.70;3.40;;;;;;;6.23;70.55;101411.25;104782;1273;98173;-76
2023/05/28 02:55:11;;;;;;;7.30;3.30;;;;;;;6.24;70.83;101410.63;104875;1269;98492;-78
2023/05/28 02:57:56;;;;;;;7.90;3.70;;;;;;;6.25;70.83;101408.79;104529;1267;101925;-79
2023/05/28 03:00:43;;;;;;;6.30;3.70;;;;;;;6.23;70.93;101407.00;104565;1267;99260;-76
2023/05/28 03:03:28;;;;;;;8.80;3.90;;;;;;;6.21;70.96;101410.52;104495;1267;98497;-78
2023/05/28 03:06:14;;;;;;;7.30;3.60;;;;;;;6.21;71.02;101413.05;104541;1267;97998;-78
2023/05/28 03:09:20;;;;;;;5.10;3.70;;;;;;;6.19;71.01;101412.85;104914;1270;97984;-81
2023/05/28 03:12:06;;;;;;;5.90;3.40;;;;;;;6.15;70.96;101415.13;104657;1267;101335;-78
2023/05/28 03:14:52;;;;;;;6.80;3.60;;;;;;;6.12;70.88;101416.16;104690;1270;101488;-78
2023/05/28 03:17:38;;;;;;;7.20;4.30;;;;;;;6.09;71.00;101421.40;104790;1272;98005;-78
2023/05/28 03:20:24;;;;;;;6.10;4.30;;;;;;;6.10;71.16;101421.15;104897;1268;99579;-78
2023/05/28 03:23:09;;;;;;;5.70;3.70;;;;;;;6.12;71.36;101418.32;104626;1271;98534;-78
2023/05/28 03:26:07;;;;;;;4.70;3.90;;;;;;;6.15;71.45;101419.80;104724;1279;102663;-78
2023/05/28 03:28:53;;;;;;;5.10;4.10;;;;;;;6.17;71.80;101424.71;104533;1267;100375;-77
2023/05/28 03:31:53;;;;;;;9.00;4.20;;;;;;;6.19;71.99;101425.43;104661;1270;99067;-77
2023/05/28 03:34:40;;;;;;;7.70;4.50;;;;;;;6.23;72.46;101423.69;104679;1271;97977;-77
2023/05/28 03:37:26;;;;;;;6.60;4.30;;;;;;;6.26;73.01;101423.74;104705;1265;98512;-79
2023/05/28 03:40:13;;;;;;;7.00;4.50;;;;;;;6.30;73.05;101425.73;104736;1269;102635;-77
2023/05/28 03:42:58;;;;;;;7.00;4.40;;;;;;;6.34;73.16;101429.27;104604;1267;99164;-78
2023/05/28 03:45:45;;;;;;;8.10;4.40;;;;;;;6.40;73.41;101429.24;104592;1266;98350;-78
2023/05/28 03:48:31;;;;;;;8.50;5.20;;;;;;;6.47;73.54;101429.98;104554;1267;99153;-78
2023/05/28 03:51:17;;;;;;;10.40;5.00;;;;;;;6.53;73.93;101424.96;104585;1273;97785;-77
2023/05/28 03:54:02;;;;;;;7.10;4.60;;;;;;;6.58;74.26;101423.11;104919;1270;101367;-79
2023/05/28 03:56:48;;;;;;;8.90;4.90;;;;;;;6.64;74.23;101422.56;104772;1270;99137;-76
2023/05/28 03:59:33;;;;;;;7.50;5.60;;;;;;;6.71;74.39;101423.64;104586;1267;98017;-78
2023/05/28 04:02:18;;;;;;;8.60;5.90;;;;;;;6.79;74.58;101423.77;104554;1271;97959;-77
2023/05/28 04:05:04;;;;;;;9.60;5.90;;;;;;;6.87;74.75;101427.98;104635;1270;97889;-79
2023/05/28 04:07:50;;;;;;;11.00;6.20;;;;;;;6.97;75.08;101426.86;104733;1267;102196;-78
2023/05/28 04:10:35;;;;;;;11.70;5.30;;;;;;;7.05;75.53;101424.35;104736;1265;99239;-78
2023/05/28 04:13:22;;;;;;;10.10;4.50;;;;;;;7.10;75.77;101423.83;104689;1270;97982;-79
2023/05/28 04:16:09;;;;;;;7.60;4.30;;;;;;;7.17;75.89;101424.46;104855;1268;98142;-79
2023/05/28 04:18:55;;;;;;;8.80;5.30;;;;;;;7.23;76.00;101426.55;104602;1267;99057;-78
2023/05/28 04:21:40;;;;;;;8.60;4.60;;;;;;;7.29;76.07;101423.86;104655;1265;101341;-78
2023/05/28 04:24:26;;;;;;;13.90;5.30;;;;;;;7.34;76.20;101422.11;104762;1265;100346;-78
2023/05/28 04:27:13;;;;;;;12.70;5.20;;;;;;;7.41;76.31;101421.75;104789;1267;97991;-77
2023/05/28 04:29:58;;;;;;;11.00;5.80;;;;;;;7.49;76.32;101420.11;104670;1266;97994;-78
2023/05/28 04:32:44;;;;;;;6.80;5.40;;;;;;;7.57;76.62;101418.61;104691;1266;98516;-78
2023/05/28 04:35:29;;;;;;;8.90;5.50;;;;;;;7.66;76.69;101421.27;104814;1265;102663;-79
2023/05/28 04:38:15;;;;;;;8.70;5.60;;;;;;;7.74;76.91;101415.64;104655;1271;100838;-79
2023/05/28 04:41:03;;;;;;;8.20;5.20;;;;;;;7.84;77.15;101414.05;105014;1268;97965;-81
2023/05/28 04:43:49;;;;;;;16.70;6.50;;;;;;;7.94;77.16;101413.05;105130;1267;98380;-80
2023/05/28 04:46:36;;;;;;;8.90;5.60;;;;;;;8.04;76.89;101411.68;105670;1268;98416;-77
2023/05/28 04:49:22;;;;;;;7.90;5.60;;;;;;;8.14;76.96;101410.36;105117;1267;103552;-80
2023/05/28 04:52:08;;;;;;;12.00;6.00;;;;;;;8.24;76.76;101412.39;105042;1267;100369;-79
2023/05/28 04:54:56;;;;;;;9.50;5.40;;;;;;;8.33;76.81;101410.77;104614;1268;98039;-79
2023/05/28 04:57:41;;;;;;;12.50;4.90;;;;;;;8.42;77.03;101408.35;104826;1266;98138;-78
2023/05/28 05:00:28;;;;;;;9.00;5.60;;;;;;;8.52;76.58;101407.94;104807;1273;98406;-79
2023/05/28 05:03:15;;;;;;;11.80;5.90;;;;;;;8.63;76.36;101410.05;104736;1267;101425;-78
2023/05/28 05:06:00;;;;;;;11.10;5.30;;;;;;;8.74;76.22;101411.17;105662;1270;99121;-79
2023/05/28 05:08:46;;;;;;;15.30;5.20;;;;;;;8.86;76.40;101407.00;104752;1267;99367;-79
2023/05/28 05:11:31;;;;;;;9.10;5.40;;;;;;;8.97;76.18;101410.38;104844;1269;98496;-81
2023/05/28 05:14:17;;;;;;;9.40;5.50;;;;;;;9.09;76.46;101412.73;105016;1270;98099;-79
2023/05/28 05:17:03;;;;;;;13.20;5.60;;;;;;;9.21;76.30;101409.90;104808;1267;102101;-78
2023/05/28 05:19:48;;;;;;;8.90;5.20;;;;;;;9.33;76.21;101411.64;105059;1270;99065;-77
2023/05/28 05:22:34;;;;;;;10.80;5.40;;;;;;;9.45;76.05;101409.16;104684;1271;106356;-80
2023/05/28 05:25:21;;;;;;;10.60;4.80;;;;;;;9.56;75.71;101406.79;104735;1267;97952;-79
2023/05/28 05:28:07;;;;;;;8.80;5.20;;;;;;;9.68;75.81;101405.29;105639;1265;98521;-80
2023/05/28 05:30:52;;;;;;;13.50;5.10;;;;;;;9.80;75.72;101407.17;105054;1270;102495;-80
2023/05/28 05:33:38;;;;;;;13.10;5.90;;;;;;;9.93;75.43;101402.06;104992;1267;99120;-81
2023/05/28 05:36:38;;;;;;;10.10;4.90;;;;;;;10.06;75.02;101403.85;105692;1268;98024;-78
2023/05/28 05:39:58;;;;;;;9.90;4.90;;;;;;;10.21;74.51;101403.94;105189;1270;98522;-80
2023/05/28 05:42:56;;;;;;;8.50;4.50;;;;;;;10.33;74.35;101402.42;105629;1266;97888;-78
2023/05/28 05:45:43;;;;;;;8.70;4.50;;;;;;;10.44;73.89;101400.31;104780;1269;102127;-81
2023/05/28 05:48:31;;;;;;;11.70;5.20;;;;;;;10.56;73.70;101398.21;105779;1270;100564;-81
2023/05/28 05:51:18;;;;;;;7.20;4.10;;;;;;;10.68;73.28;101398.14;105680;1271;98386;-80
2023/05/28 05:54:03;;;;;;;7.70;4.40;;;;;;;10.81;73.62;101392.56;105712;1265;98076;-80
2023/05/28 05:56:49;;;;;;;8.20;5.20;;;;;;;10.96;73.40;101390.70;104912;1271;98505;-79
2023/05/28 05:59:34;;;;;;;6.30;4.20;;;;;;;11.12;72.71;101389.51;104849;1267;102072;-78
2023/05/28 06:02:20;;;;;;;7.40;4.30;;;;;;;11.29;73.68;101388.23;105804;1267;99661;-80
2023/05/28 06:05:06;;;;;;;7.90;5.10;;;;;;;11.47;72.90;101388.50;105664;1265;99518;-82
2023/05/28 06:08:02;;;;;;;10.30;5.00;;;;;;;11.65;72.04;101388.98;105633;1270;98141;-80
2023/05/28 06:11:14;;;;;;;10.70;4.60;;;;;;;11.83;71.32;101388.67;104945;1269;99526;-79
2023/05/28 06:14:00;;;;;;;11.60;4.10;;;;;;;12.00;71.41;101388.69;104973;1268;101491;-80
2023/05/28 06:16:46;;;;;;;7.40;4.00;;;;;;;12.18;71.22;101391.75;104863;1265;100364;-80
2023/05/28 06:19:33;;;;;;;6.30;3.60;;;;;;;12.34;70.41;101391.41;104784;1273;98073;-79
2023/05/28 06:22:20;;;;;;;9.90;3.60;;;;;;;12.54;68.77;101392.67;104594;1271;97975;-79
2023/05/28 06:25:08;;;;;;;4.40;2.80;;;;;;;12.70;68.28;101396.55;104828;1268;98481;-78
2023/05/28 06:27:54;;;;;;;10.30;3.20;;;;;;;12.87;67.61;101394.23;105541;1267;102358;-79
2023/05/28 06:30:42;;;;;;;7.80;3.60;;;;;;;13.04;67.66;101386.83;104872;1267;100257;-81
2023/05/28 06:33:28;;;;;;;7.30;2.50;;;;;;;13.23;66.41;101384.79;105708;1265;97952;-82
2023/05/28 06:36:13;;;;;;;4.70;2.40;;;;;;;13.40;66.38;101391.05;105616;1267;97951;-82
2023/05/28 06:38:59;;;;;;;7.90;2.80;;;;;;;13.58;64.26;101392.66;105657;1271;98514;-82
2023/05/28 06:41:52;;;;;;;5.50;2.20;;;;;;;13.75;63.15;101395.21;105613;1267;101377;-81
2023/05/28 06:44:45;;;;;;;8.50;2.70;;;;;;;13.91;62.28;101396.90;105579;1267;99447;-80
2023/05/28 06:47:35;;;;;;;6.60;2.60;;;;;;;14.06;61.44;101396.41;105728;1266;98757;-80
2023/05/28 06:50:20;;;;;;;8.30;2.40;;;;;;;14.18;60.49;101388.25;105678;1265;97981;-81
2023/05/28 06:53:10;;;;;;;10.40;2.40;;;;;;;14.29;59.99;101386.82;105680;1265;98433;-83
2023/05/28 06:55:57;;;;;;;5.60;2.20;;;;;;;14.41;59.24;101385.16;105774;1267;101379;-83
2023/05/28 06:59:02;;;;;;;4.60;2.20;;;;;;;14.54;59.20;101380.98;105637;1266;100378;-85
2023/05/28 07:02:13;;;;;;;5.50;3.80;;;;;;;14.71;59.95;101380.38;105502;1270;99043;-81
2023/05/28 07:05:18;;;;;;;5.90;2.80;;;;;;;14.85;57.92;101377.88;105604;1264;99294;-81
2023/05/28 07:08:04;;;;;;;9.80;4.10;;;;;;;14.96;57.56;101375.56;105849;1267;98466;-82
2023/05/28 07:10:49;;;;;;;7.90;2.80;;;;;;;15.04;56.69;101373.92;105659;1270;102158;-81
2023/05/28 07:13:35;;;;;;;4.50;2.20;;;;;;;15.15;56.48;101371.76;105840;1267;99100;-89
2023/05/28 07:16:22;;;;;;;3.60;1.80;;;;;;;15.27;56.33;101366.94;106001;1265;97914;-82
2023/05/28 07:19:07;;;;;;;5.50;2.50;;;;;;;15.36;54.86;101366.98;105470;1267;98028;-84
2023/05/28 07:21:53;;;;;;;7.20;2.30;;;;;;;15.44;55.56;101367.77;105429;1269;98602;-84
2023/05/28 07:24:40;;;;;;;6.00;2.40;;;;;;;15.55;55.06;101364.16;105319;1267;101354;-86
2023/05/28 07:27:27;;;;;;;5.00;1.60;;;;;;;15.63;53.41;101364.04;105394;1267;99418;-86
2023/05/28 07:30:12;;;;;;;5.50;2.00;;;;;;;15.69;52.72;101362.52;105634;1267;97987;-86
2023/05/28 07:32:58;;;;;;;4.30;1.40;;;;;;;15.76;52.45;101359.10;105951;1265;98862;-84
2023/05/28 07:35:44;;;;;;;6.70;1.80;;;;;;;15.86;51.58;101358.88;105758;1267;99600;-81
2023/05/28 07:38:30;;;;;;;4.10;1.70;;;;;;;15.98;51.01;101357.35;105408;1267;102377;-85
2023/05/28 07:41:18;;;;;;;5.80;2.00;;;;;;;16.13;50.94;101355.17;105391;1269;99346;-83
2023/05/28 07:44:08;;;;;;;6.60;2.00;;;;;;;16.26;51.03;101354.17;106178;1265;97923;-85
2023/05/28 07:46:55;;;;;;;7.60;1.70;;;;;;;16.37;50.51;101350.86;107725;1267;95412;-83
2023/05/28 07:50:15;;;;;;;7.60;1.90;;;;;;;16.44;50.29;101343.00;107747;1267;95458;-82
2023/05/28 07:53:18;;;;;;;5.70;2.10;;;;;;;16.54;51.26;101342.37;107780;1266;102722;-82
2023/05/28 07:56:07;;;;;;;4.60;1.20;;;;;;;16.68;51.30;101337.77;107529;1267;99108;-85
2023/05/28 07:58:53;;;;;;;6.50;1.70;;;;;;;16.77;49.57;101337.35;107836;1265;99063;-86
2023/05/28 08:01:40;;;;;;;10.60;1.60;;;;;;;16.85;49.03;101332.26;107076;1268;98013;-83
2023/05/28 08:04:25;;;;;;;3.40;1.20;;;;;;;16.93;48.48;101329.20;105295;1268;98612;-89
2023/05/28 08:07:12;;;;;;;6.80;1.40;;;;;;;16.98;47.79;101327.73;105612;1270;101566;-79
2023/05/28 08:09:58;;;;;;;2.90;1.20;;;;;;;16.97;46.29;101328.34;105568;1270;99146;-80
2023/05/28 08:12:43;;;;;;;5.60;1.30;;;;;;;16.96;46.93;101325.87;105466;1270;99602;-82
2023/05/28 08:15:29;;;;;;;4.80;1.00;;;;;;;17.00;46.51;101321.73;105605;1267;97975;-80
2023/05/28 08:18:15;;;;;;;7.10;1.10;;;;;;;17.07;46.46;101322.32;105558;1269;98400;-81
2023/05/28 08:21:00;;;;;;;5.50;1.80;;;;;;;17.17;46.07;101324.50;105447;1273;102243;-81
2023/05/28 08:23:46;;;;;;;5.40;1.50;;;;;;;17.26;45.90;101325.02;105426;1270;99099;-81
2023/05/28 08:26:31;;;;;;;3.10;1.20;;;;;;;17.32;45.90;101322.74;105515;1267;98051;-82
2023/05/28 08:29:16;;;;;;;5.50;1.20;;;;;;;17.34;44.68;101322.66;105566;1267;96270;-80
2023/05/28 08:32:07;;;;;;;4.30;1.40;;;;;;;17.38;45.48;101320.80;105549;1265;98058;-81
2023/05/28 08:34:56;;;;;;;4.50;1.20;;;;;;;17.46;45.28;101320.11;105848;1270;102301;-80
2023/05/28 08:37:43;;;;;;;5.40;0.90;;;;;;;17.47;43.91;101325.95;105665;1266;99930;-80
2023/05/28 08:40:41;;;;;;;4.10;0.80;;;;;;;17.44;43.27;101326.32;105607;1267;99008;-83
2023/05/28 08:43:27;;;;;;;5.30;1.20;;;;;;;17.41;42.30;101325.55;105334;1267;97994;-80
2023/05/28 08:46:15;;;;;;;3.20;1.10;;;;;;;17.40;42.57;101326.91;105583;1267;97936;-82
2023/05/28 08:49:18;;;;;;;4.00;0.60;;;;;;;17.48;43.52;101324.25;105702;1267;101369;-82
2023/05/28 08:52:08;;;;;;;5.90;1.80;;;;;;;17.58;43.46;101322.35;105698;1268;109355;-81
2023/05/28 08:54:54;;;;;;;4.50;0.90;;;;;;;17.67;43.22;101316.26;105590;1265;99039;-82
2023/05/28 08:57:39;;;;;;;2.90;0.80;;;;;;;17.71;42.45;101314.07;105687;1269;97971;-82
2023/05/28 09:00:25;;;;;;;2.60;1.00;;;;;;;17.72;42.23;101313.98;105546;1272;98257;-82
2023/05/28 09:03:30;;;;;;;2.30;0.70;;;;;;;17.74;42.06;101312.48;105683;1269;101345;-80
2023/05/28 09:06:20;;;;;;;3.00;1.00;;;;;;;17.80;43.57;101309.95;105828;1266;99945;-81
2023/05/28 09:09:09;;;;;;;2.60;0.90;;;;;;;17.94;42.84;101307.16;105560;1267;98763;-87
2023/05/28 09:12:06;;;;;;;4.70;1.10;;;;;;;18.07;41.88;101301.48;105457;1268;98194;-84
2023/05/28 09:14:53;;;;;;;5.40;0.80;;;;;;;18.14;41.11;101293.85;105761;1267;98058;-83
2023/05/28 09:17:39;;;;;;;2.30;0.70;;;;;;;18.17;41.58;101287.05;105614;1266;101369;-83
2023/05/28 09:20:36;;;;;;;2.40;1.00;;;;;;;18.24;42.04;101284.09;105378;1267;99352;-86
2023/05/28 09:23:28;;;;;;;5.80;1.10;;;;;;;18.35;42.82;101290.42;105665;1273;98942;-80
2023/05/28 09:26:33;;;;;;;8.40;1.10;;;;;;;18.44;42.59;101289.77;105677;1269;97994;-79
2023/05/28 09:29:38;;;;;;;7.60;1.30;;;;;;;18.54;41.67;101283.55;105079;1271;97976;-80
2023/05/28 09:32:24;;;;;;;1.80;1.00;;;;;;;18.63;41.12;101286.40;105412;1267;101366;-83
2023/05/28 09:35:10;;;;;;;3.50;1.00;;;;;;;18.70;41.08;101281.48;105456;1270;100869;-80
2023/05/28 09:38:01;;;;;;;3.50;1.00;;;;;;;18.76;40.55;101279.38;105596;1273;98420;-80
2023/05/28 09:40:48;;;;;;;5.30;0.80;;;;;;;18.80;40.93;101277.00;105696;1268;97985;-80
2023/05/28 09:43:37;;;;;;;4.40;1.50;;;;;;;18.85;40.99;101273.85;105536;1269;98415;-78
2023/05/28 09:46:27;;;;;;;4.50;1.40;;;;;;;18.87;40.87;101266.05;104960;1268;101419;-81
2023/05/28 09:49:13;;;;;;;;;;;;;;;18.93;40.05;101265.80;105272;1272;99052;-84
2023/05/28 09:52:01;;;;;;;5.60;1.20;;;;;;;18.97;40.00;101261.41;105298;1268;99077;-85
2023/05/28 09:54:52;;;;;;;3.90;0.90;;;;;;;19.02;39.36;101259.55;105322;1270;98961;-86
2023/05/28 09:57:40;;;;;;;;;;;;;;;19.08;39.96;101258.23;105365;1271;97889;-80
2023/05/28 10:00:31;;;;;;;4.90;1.20;;;;;;;19.14;39.75;101254.48;105732;1268;101343;-81
2023/05/28 10:03:24;;;;;;;3.00;1.10;;;;;;;19.22;39.58;101257.82;105712;1268;99090;-81
2023/05/28 10:06:18;;;;;;;1.00;0.70;;;;;;;19.27;39.88;101256.55;105791;1267;98783;-81
2023/05/28 10:09:04;;;;;;;2.90;1.00;;;;;;;19.31;39.50;101250.23;105595;1267;97920;-81
2023/05/28 10:11:57;;;;;;;4.10;0.90;;;;;;;19.35;39.13;101252.17;105610;1268;97849;-81
2023/05/28 10:14:44;;;;;;;5.20;1.20;;;;;;;19.32;38.61;101247.35;105741;1268;101469;-82
2023/05/28 10:17:30;;;;;;;3.80;0.80;;;;;;;19.35;40.19;101244.86;105649;1268;99324;-81
2023/05/28 10:20:18;;;;;;;5.10;1.50;;;;;;;19.42;38.95;101235.57;105677;1268;98042;-82
2023/05/28 10:23:03;;;;;;;3.80;1.00;;;;;;;19.47;39.43;101236.30;105700;1264;97889;-80
2023/05/28 10:25:50;;;;;;;3.30;1.00;;;;;;;19.56;39.62;101236.21;105674;1270;98697;-80
2023/05/28 10:28:35;;;;;;;2.50;0.90;;;;;;;19.65;39.23;101236.09;105724;1268;101444;-81
2023/05/28 10:31:22;;;;;;;5.20;1.40;;;;;;;19.75;39.17;101235.48;105563;1267;99096;-79
2023/05/28 10:34:17;;;;;;;3.80;1.00;;;;;;;19.82;38.81;101235.34;105670;1265;99080;-81
2023/05/28 10:37:05;;;;;;;3.50;1.10;;;;;;;19.79;38.06;101230.61;105653;1267;97977;-81
2023/05/28 10:39:51;;;;;;;9.50;1.10;;;;;;;19.80;38.06;101223.82;105745;1265;98471;-82
2023/05/28 10:42:42;;;;;;;4.80;1.30;;;;;;;19.87;37.96;101217.37;105706;1268;101544;-82
2023/05/28 10:45:39;;;;;;;5.00;1.00;;;;;;;19.92;38.09;101219.13;105688;1269;99994;-82
2023/05/28 10:48:25;;;;;;;2.50;1.00;;;;;;;19.97;38.32;101213.55;105632;1267;98996;-80
2023/05/28 10:51:10;;;;;;;2.10;0.90;;;;;;;20.08;39.04;101208.36;105573;1265;98819;-82
2023/05/28 10:53:56;;;;;;;3.80;1.00;;;;;;;20.16;38.31;101206.77;105672;1265;98415;-83
2023/05/28 10:57:07;;;;;;;5.30;1.10;;;;;;;20.17;38.31;101201.81;105702;1268;101519;-82
2023/05/28 10:59:59;;;;;;;4.40;1.50;;;;;;;20.25;37.65;101205.56;105685;1265;100436;-82
2023/05/28 11:02:52;;;;;;;3.20;1.20;;;;;;;20.23;37.09;101202.97;106849;1258;108236;31
2023/05/28 11:05:38;;;;;;;1.80;1.10;;;;;;;20.21;38.19;101198.61;105935;1265;97826;-82
2023/05/28 11:08:23;;;;;;;3.50;1.10;;;;;;;20.32;38.12;101193.66;105756;1265;99114;-81
2023/05/28 11:11:14;;;;;;;4.10;1.40;;;;;;;20.39;38.43;101189.05;105870;1265;101968;-80
2023/05/28 11:14:01;;;;;;;1.90;1.00;;;;;;;20.49;38.08;101194.71;105630;1270;99268;-81
2023/05/28 11:16:46;;;;;;;4.70;1.00;;;;;;;20.58;38.05;101193.58;105780;1269;99037;-81
2023/05/28 11:19:48;;;;;;;3.80;1.10;;;;;;;20.67;38.33;101191.05;105743;1265;97927;-79
2023/05/28 11:22:37;;;;;;;2.40;1.00;;;;;;;20.78;37.60;101190.36;105721;1270;98050;-80
2023/05/28 11:25:25;;;;;;;4.70;1.10;;;;;;;20.90;37.47;101188.55;105576;1267;102034;-82
2023/05/28 11:28:11;;;;;;;5.20;1.00;;;;;;;20.99;37.32;101187.23;105747;1269;99918;-81
2023/05/28 11:31:00;;;;;;;4.30;1.30;;;;;;;21.02;36.42;101185.80;105696;1265;97901;-81
2023/05/28 11:33:49;;;;;;;2.00;1.10;;;;;;;20.99;36.66;101184.28;105712;1264;97895;-81
2023/05/28 11:36:42;;;;;;;4.10;1.30;;;;;;;21.03;36.83;101179.39;105731;1266;98006;-82
2023/05/28 11:39:27;;;;;;;2.60;0.90;;;;;;;21.14;36.70;101180.36;105637;1265;101383;-81
2023/05/28 11:42:13;;;;;;;2.40;1.30;;;;;;;21.24;36.69;101182.16;105767;1270;99083;-81
2023/05/28 11:44:58;;;;;;;5.30;1.00;;;;;;;21.36;36.67;101181.95;105708;1270;98005;-81
2023/05/28 11:47:46;;;;;;;5.00;1.30;;;;;;;21.44;36.94;101180.84;105627;1265;97888;-81
2023/05/28 11:50:35;;;;;;;7.30;1.20;;;;;;;21.50;36.31;101174.96;105759;1264;97997;-84
2023/05/28 11:53:21;;;;;;;2.30;1.60;;;;;;;21.56;35.79;101174.91;105902;1266;102602;-81
2023/05/28 11:56:08;;;;;;;4.60;1.10;;;;;;;21.56;36.12;101172.73;105782;1264;100378;-81
2023/05/28 11:58:54;;;;;;;8.70;1.40;;;;;;;21.60;36.38;101166.53;105783;1265;98197;-81
2023/05/28 12:01:39;;;;;;;7.10;1.70;;;;;;;21.68;36.33;101162.60;105711;1265;97989;-82
2023/05/28 12:04:25;;;;;;;5.60;1.40;;;;;;;21.75;35.98;101158.85;105913;1266;97904;-83
2023/05/28 12:07:11;;;;;;;3.20;0.90;;;;;;;21.83;35.92;101156.02;105741;1270;102697;-81
2023/05/28 12:10:11;;;;;;;3.70;1.20;;;;;;;21.90;36.44;101152.41;105800;1265;99625;-82
2023/05/28 12:12:56;;;;;;;3.90;1.30;;;;;;;21.97;37.38;101146.05;105736;1270;108214;-80
2023/05/28 12:15:43;;;;;;;7.00;1.30;;;;;;;22.03;36.63;101145.98;105734;1265;97980;-81
2023/05/28 12:18:29;;;;;;;4.50;1.10;;;;;;;22.11;36.16;101142.50;105770;1265;97889;-82
2023/05/28 12:21:18;;;;;;;2.50;1.00;;;;;;;22.18;36.56;101138.47;105603;1265;101497;-83
2023/05/28 12:24:14;;;;;;;2.00;1.00;;;;;;;22.29;36.44;101140.43;105995;1267;99095;-90
2023/05/28 12:27:00;;;;;;;5.90;1.10;;;;;;;22.36;35.42;101139.94;105721;1268;99038;-84
2023/05/28 12:29:46;;;;;;;3.10;1.30;;;;;;;22.38;35.03;101136.91;105514;1268;97890;-84
2023/05/28 12:32:31;;;;;;;5.30;1.30;;;;;;;22.37;34.82;101133.95;105682;1267;97770;-84
2023/05/28 12:35:16;;;;;;;6.00;1.30;;;;;;;22.34;34.00;101133.41;106211;1270;102682;-81
2023/05/28 12:38:02;;;;;;;4.20;1.40;;;;;;;22.26;34.18;101130.47;105859;1267;99903;-83
2023/05/28 12:40:47;;;;;;;3.50;1.40;;;;;;;22.32;34.70;101128.03;105662;1269;98994;-82
2023/05/28 12:43:33;;;;;;;5.00;1.10;;;;;;;22.42;35.09;101120.92;105742;1265;98002;-85
2023/05/28 12:46:18;;;;;;;3.00;1.50;;;;;;;22.49;34.98;101121.17;105734;1264;98505;-81
2023/05/28 12:49:07;;;;;;;7.00;1.10;;;;;;;22.53;34.56;101119.37;105869;1265;102719;-80
2023/05/28 12:51:52;;;;;;;4.30;1.30;;;;;;;22.62;34.47;101122.83;105876;1265;99075;-80